sensor_id;sensor_type;location;lat;lon;timestamp;noise_LAeq;noise_LA_min;noise_LA_max;noise_LA01;noise_LA95
45478;Laerm;31227;47.986;11.868;2023-04-12T00:01:12;37.44;32.35;40.03;;
45478;Laerm;31227;47.986;11.868;2023-04-12T00:03:37;37.46;33.90;40.13;;
45478;Laerm;31227;47.986;11.868;2023-04-12T00:06:03;37.44;33.90;39.92;;
45478;Laerm;31227;47.986;11.868;2023-04-12T00:08:31;37.42;32.35;40.13;;
45478;Laerm;31227;47.986;11.868;2023-04-12T00:10:59;37.42;33.44;39.70;;
45478;Laerm;31227;47.986;11.868;2023-04-12T00:13:28;37.42;33.90;40.23;;
45478;Laerm;31227;47.986;11.868;2023-04-12T00:15:54;37.49;32.93;41.96;;
45478;Laerm;31227;47.986;11.868;2023-04-12T00:18:19;37.41;33.44;40.03;;
45478;Laerm;31227;47.986;11.868;2023-04-12T00:20:45;37.46;33.90;40.03;;
45478;Laerm;31227;47.986;11.868;2023-04-12T00:23:10;37.43;33.44;39.99;;
45478;Laerm;31227;47.986;11.868;2023-04-12T00:25:37;37.59;32.93;56.36;;
45478;Laerm;31227;47.986;11.868;2023-04-12T00:28:03;37.58;33.44;40.23;;
45478;Laerm;31227;47.986;11.868;2023-04-12T00:30:28;37.62;34.31;40.62;;
45478;Laerm;31227;47.986;11.868;2023-04-12T00:32:54;37.76;33.90;40.62;;
45478;Laerm;31227;47.986;11.868;2023-04-12T00:35:19;37.91;34.31;40.43;;
45478;Laerm;31227;47.986;11.868;2023-04-12T00:37:44;37.88;34.31;41.30;;
45478;Laerm;31227;47.986;11.868;2023-04-12T00:40:10;37.73;32.93;40.53;;
45478;Laerm;31227;47.986;11.868;2023-04-12T00:42:35;37.81;33.90;40.23;;
45478;Laerm;31227;47.986;11.868;2023-04-12T00:45:02;37.74;33.90;40.62;;
45478;Laerm;31227;47.986;11.868;2023-04-12T00:47:27;37.78;33.44;40.43;;
45478;Laerm;31227;47.986;11.868;2023-04-12T00:49:53;37.72;33.44;40.23;;
45478;Laerm;31227;47.986;11.868;2023-04-12T00:52:19;37.79;34.31;40.33;;
45478;Laerm;31227;47.986;11.868;2023-04-12T00:54:44;37.81;32.93;40.33;;
45478;Laerm;31227;47.986;11.868;2023-04-12T00:57:10;37.85;33.44;40.23;;
45478;Laerm;31227;47.986;11.868;2023-04-12T00:59:35;37.77;33.44;40.23;;
45478;Laerm;31227;47.986;11.868;2023-04-12T01:02:00;37.92;32.35;41.22;;
45478;Laerm;31227;47.986;11.868;2023-04-12T01:04:27;37.79;33.90;40.71;;
45478;Laerm;31227;47.986;11.868;2023-04-12T01:16:02;37.62;33.90;41.53;;
45478;Laerm;31227;47.986;11.868;2023-04-12T01:30:36;37.53;32.93;40.43;;
45478;Laerm;31227;47.986;11.868;2023-04-12T01:33:04;37.43;33.44;40.33;;
45478;Laerm;31227;47.986;11.868;2023-04-12T01:38:55;37.41;33.90;40.13;;
45478;Laerm;31227;47.986;11.868;2023-04-12T01:44:38;37.42;31.68;40.23;;
45478;Laerm;31227;47.986;11.868;2023-04-12T01:47:06;37.42;32.35;40.23;;
45478;Laerm;31227;47.986;11.868;2023-04-12T01:49:44;37.43;32.93;40.13;;
45478;Laerm;31227;47.986;11.868;2023-04-12T01:52:14;37.44;33.44;40.13;;
45478;Laerm;31227;47.986;11.868;2023-04-12T01:54:45;37.44;33.44;39.92;;
45478;Laerm;31227;47.986;11.868;2023-04-12T01:57:13;37.50;33.44;40.33;;
45478;Laerm;31227;47.986;11.868;2023-04-12T01:59:40;37.51;33.90;40.96;;
45478;Laerm;31227;47.986;11.868;2023-04-12T02:02:06;37.69;33.44;40.53;;
45478;Laerm;31227;47.986;11.868;2023-04-12T02:04:32;37.78;33.90;40.13;;
45478;Laerm;31227;47.986;11.868;2023-04-12T02:06:58;37.75;33.90;40.98;;
45478;Laerm;31227;47.986;11.868;2023-04-12T02:09:24;37.73;33.44;40.43;;
45478;Laerm;31227;47.986;11.868;2023-04-12T02:11:49;37.73;33.90;40.45;;
45478;Laerm;31227;47.986;11.868;2023-04-12T02:14:15;37.73;34.31;40.43;;
45478;Laerm;31227;47.986;11.868;2023-04-12T02:16:40;37.90;33.90;40.62;;
45478;Laerm;31227;47.986;11.868;2023-04-12T02:19:09;37.88;34.31;40.33;;
45478;Laerm;31227;47.986;11.868;2023-04-12T02:21:38;37.86;34.31;40.43;;
45478;Laerm;31227;47.986;11.868;2023-04-12T02:24:03;37.89;33.44;40.43;;
45478;Laerm;31227;47.986;11.868;2023-04-12T02:26:29;37.88;33.90;40.43;;
45478;Laerm;31227;47.986;11.868;2023-04-12T02:28:54;37.82;33.90;40.33;;
45478;Laerm;31227;47.986;11.868;2023-04-12T02:31:19;37.81;33.90;42.47;;
45478;Laerm;31227;47.986;11.868;2023-04-12T02:33:48;37.65;33.90;40.13;;
45478;Laerm;31227;47.986;11.868;2023-04-12T02:36:14;37.64;32.93;40.03;;
45478;Laerm;31227;47.986;11.868;2023-04-12T02:38:40;37.64;32.35;40.62;;
45478;Laerm;31227;47.986;11.868;2023-04-12T02:41:06;37.63;32.93;40.23;;
45478;Laerm;31227;47.986;11.868;2023-04-12T02:43:34;37.63;33.90;41.53;;
45478;Laerm;31227;47.986;11.868;2023-04-12T02:46:00;37.57;33.44;40.18;;
45478;Laerm;31227;47.986;11.868;2023-04-12T02:48:28;37.57;33.90;40.03;;
45478;Laerm;31227;47.986;11.868;2023-04-12T02:50:53;37.51;33.44;40.43;;
45478;Laerm;31227;47.986;11.868;2023-04-12T02:53:19;37.55;33.90;40.13;;
45478;Laerm;31227;47.986;11.868;2023-04-12T02:55:45;37.56;33.44;40.27;;
45478;Laerm;31227;47.986;11.868;2023-04-12T02:58:10;37.48;33.90;40.23;;
45478;Laerm;31227;47.986;11.868;2023-04-12T03:00:36;37.53;33.44;40.13;;
45478;Laerm;31227;47.986;11.868;2023-04-12T03:03:02;37.80;34.31;43.44;;
45478;Laerm;31227;47.986;11.868;2023-04-12T03:05:27;37.48;33.90;39.92;;
45478;Laerm;31227;47.986;11.868;2023-04-12T03:07:53;37.58;33.90;40.08;;
45478;Laerm;31227;47.986;11.868;2023-04-12T03:10:18;37.61;34.31;40.54;;
45478;Laerm;31227;47.986;11.868;2023-04-12T03:12:44;37.60;33.90;40.33;;
45478;Laerm;31227;47.986;11.868;2023-04-12T03:15:09;37.54;32.93;40.03;;
45478;Laerm;31227;47.986;11.868;2023-04-12T03:17:35;37.55;33.44;40.23;;
45478;Laerm;31227;47.986;11.868;2023-04-12T03:20:04;37.47;33.44;40.53;;
45478;Laerm;31227;47.986;11.868;2023-04-12T03:22:31;37.49;33.44;39.99;;
45478;Laerm;31227;47.986;11.868;2023-04-12T03:25:00;37.65;32.35;42.59;;
45478;Laerm;31227;47.986;11.868;2023-04-12T03:27:26;37.49;33.44;40.53;;
45478;Laerm;31227;47.986;11.868;2023-04-12T03:29:52;37.69;32.35;40.98;;
45478;Laerm;31227;47.986;11.868;2023-04-12T03:32:17;37.83;32.35;41.68;;
45478;Laerm;31227;47.986;11.868;2023-04-12T03:34:43;37.51;31.68;40.13;;
45478;Laerm;31227;47.986;11.868;2023-04-12T03:37:09;37.87;34.31;42.47;;
45478;Laerm;31227;47.986;11.868;2023-04-12T03:39:34;37.57;33.44;41.06;;
45478;Laerm;31227;47.986;11.868;2023-04-12T03:42:03;37.63;33.44;40.62;;
45478;Laerm;31227;47.986;11.868;2023-04-12T03:44:31;37.98;34.31;44.15;;
45478;Laerm;31227;47.986;11.868;2023-04-12T03:46:59;46.26;33.44;81.78;;
45478;Laerm;31227;47.986;11.868;2023-04-12T03:49:25;37.81;33.44;41.38;;
45478;Laerm;31227;47.986;11.868;2023-04-12T03:51:50;37.70;34.31;41.75;;
45478;Laerm;31227;47.986;11.868;2023-04-12T03:54:16;37.81;33.90;42.29;;
45478;Laerm;31227;47.986;11.868;2023-04-12T03:56:42;37.89;33.90;40.80;;
45478;Laerm;31227;47.986;11.868;2023-04-12T03:59:07;37.93;32.93;40.62;;
45478;Laerm;31227;47.986;11.868;2023-04-12T04:01:33;37.95;32.93;41.30;;
45478;Laerm;31227;47.986;11.868;2023-04-12T04:04:02;38.21;33.90;42.03;;
45478;Laerm;31227;47.986;11.868;2023-04-12T04:09:37;38.33;33.44;43.46;;
45478;Laerm;31227;47.986;11.868;2023-04-12T04:12:06;38.19;33.90;44.11;;
45478;Laerm;31227;47.986;11.868;2023-04-12T04:14:32;38.23;33.44;42.03;;
45478;Laerm;31227;47.986;11.868;2023-04-12T04:17:00;38.04;32.35;41.75;;
45478;Laerm;31227;47.986;11.868;2023-04-12T04:19:26;38.02;33.90;42.29;;
45478;Laerm;31227;47.986;11.868;2023-04-12T04:21:51;37.81;33.90;41.68;;
45478;Laerm;31227;47.986;11.868;2023-04-12T04:24:17;37.59;32.35;40.33;;
45478;Laerm;31227;47.986;11.868;2023-04-12T04:26:43;37.65;32.93;40.71;;
45478;Laerm;31227;47.986;11.868;2023-04-12T04:29:11;38.02;33.90;44.73;;
45478;Laerm;31227;47.986;11.868;2023-04-12T04:31:42;37.68;32.93;40.43;;
45478;Laerm;31227;47.986;11.868;2023-04-12T04:34:10;37.65;32.35;40.43;;
45478;Laerm;31227;47.986;11.868;2023-04-12T04:36:36;38.28;33.90;43.49;;
45478;Laerm;31227;47.986;11.868;2023-04-12T04:39:02;37.68;32.93;40.71;;
45478;Laerm;31227;47.986;11.868;2023-04-12T04:41:29;37.89;31.68;41.61;;
45478;Laerm;31227;47.986;11.868;2023-04-12T04:43:54;37.77;33.44;40.33;;
45478;Laerm;31227;47.986;11.868;2023-04-12T04:46:19;38.09;33.44;43.19;;
45478;Laerm;31227;47.986;11.868;2023-04-12T04:48:48;38.16;32.35;42.47;;
45478;Laerm;31227;47.986;11.868;2023-04-12T04:51:15;38.09;32.93;42.29;;
45478;Laerm;31227;47.986;11.868;2023-04-12T04:53:41;37.97;33.90;42.22;;
45478;Laerm;31227;47.986;11.868;2023-04-12T04:56:06;37.97;32.35;42.59;;
45478;Laerm;31227;47.986;11.868;2023-04-12T04:58:32;38.01;33.44;42.47;;
45478;Laerm;31227;47.986;11.868;2023-04-12T05:00:57;37.80;33.09;42.59;;
45478;Laerm;31227;47.986;11.868;2023-04-12T05:03:23;37.91;31.68;43.09;;
45478;Laerm;31227;47.986;11.868;2023-04-12T05:05:52;37.86;33.44;42.59;;
45478;Laerm;31227;47.986;11.868;2023-04-12T05:08:17;37.96;32.93;41.96;;
45478;Laerm;31227;47.986;11.868;2023-04-12T05:10:42;37.96;32.93;42.16;;
45478;Laerm;31227;47.986;11.868;2023-04-12T05:13:08;37.92;32.35;42.19;;
45478;Laerm;31227;47.986;11.868;2023-04-12T05:15:34;37.99;33.44;42.41;;
45478;Laerm;31227;47.986;11.868;2023-04-12T05:17:59;38.01;34.31;42.79;;
45478;Laerm;31227;47.986;11.868;2023-04-12T05:20:25;37.83;31.68;40.71;;
45478;Laerm;31227;47.986;11.868;2023-04-12T05:22:50;37.96;32.35;43.04;;
45478;Laerm;31227;47.986;11.868;2023-04-12T05:25:15;37.91;33.44;42.47;;
45478;Laerm;31227;47.986;11.868;2023-04-12T05:27:41;37.82;32.93;40.62;;
45478;Laerm;31227;47.986;11.868;2023-04-12T05:30:06;37.58;32.35;41.22;;
45478;Laerm;31227;47.986;11.868;2023-04-12T05:32:32;37.72;33.44;40.98;;
45478;Laerm;31227;47.986;11.868;2023-04-12T05:34:57;37.76;32.35;42.03;;
45478;Laerm;31227;47.986;11.868;2023-04-12T05:37:22;37.83;32.93;40.80;;
45478;Laerm;31227;47.986;11.868;2023-04-12T05:39:48;38.07;32.93;42.71;;
45478;Laerm;31227;47.986;11.868;2023-04-12T05:42:13;37.71;32.35;40.80;;
45478;Laerm;31227;47.986;11.868;2023-04-12T05:44:38;37.95;32.93;42.29;;
45478;Laerm;31227;47.986;11.868;2023-04-12T05:47:03;37.82;33.44;41.53;;
45478;Laerm;31227;47.986;11.868;2023-04-12T05:49:29;37.83;33.44;41.53;;
45478;Laerm;31227;47.986;11.868;2023-04-12T05:51:55;37.85;33.44;40.89;;
45478;Laerm;31227;47.986;11.868;2023-04-12T05:54:20;37.82;30.89;41.61;;
45478;Laerm;31227;47.986;11.868;2023-04-12T05:56:46;37.57;32.93;40.33;;
45478;Laerm;31227;47.986;11.868;2023-04-12T05:59:11;38.01;33.44;41.53;;
45478;Laerm;31227;47.986;11.868;2023-04-12T06:01:36;38.19;33.90;41.82;;
45478;Laerm;31227;47.986;11.868;2023-04-12T06:04:06;38.10;34.31;42.22;;
45478;Laerm;31227;47.986;11.868;2023-04-12T06:06:32;37.82;30.89;41.68;;
45478;Laerm;31227;47.986;11.868;2023-04-12T06:08:57;37.71;32.93;40.80;;
45478;Laerm;31227;47.986;11.868;2023-04-12T06:11:26;38.00;32.35;41.82;;
45478;Laerm;31227;47.986;11.868;2023-04-12T06:13:55;38.06;32.93;44.39;;
45478;Laerm;31227;47.986;11.868;2023-04-12T06:16:20;37.90;32.93;41.89;;
45478;Laerm;31227;47.986;11.868;2023-04-12T06:18:45;37.95;33.90;42.03;;
45478;Laerm;31227;47.986;11.868;2023-04-12T06:21:11;37.86;33.90;41.14;;
45478;Laerm;31227;47.986;11.868;2023-04-12T06:23:37;38.33;33.90;47.26;;
45478;Laerm;31227;47.986;11.868;2023-04-12T06:26:02;38.22;33.90;43.14;;
45478;Laerm;31227;47.986;11.868;2023-04-12T06:28:27;38.02;33.44;41.30;;
45478;Laerm;31227;47.986;11.868;2023-04-12T06:30:53;38.28;33.90;42.65;;
45478;Laerm;31227;47.986;11.868;2023-04-12T06:33:19;38.13;32.93;42.47;;
45478;Laerm;31227;47.986;11.868;2023-04-12T06:35:47;38.20;32.93;42.65;;
45478;Laerm;31227;47.986;11.868;2023-04-12T06:38:12;37.97;33.44;40.89;;
45478;Laerm;31227;47.986;11.868;2023-04-12T06:40:37;37.90;34.31;40.80;;
45478;Laerm;31227;47.986;11.868;2023-04-12T06:43:03;37.94;32.93;40.98;;
45478;Laerm;31227;47.986;11.868;2023-04-12T06:45:28;38.01;34.69;41.96;;
45478;Laerm;31227;47.986;11.868;2023-04-12T06:47:54;38.01;33.90;41.68;;
45478;Laerm;31227;47.986;11.868;2023-04-12T06:50:20;38.04;32.93;41.68;;
45478;Laerm;31227;47.986;11.868;2023-04-12T06:52:46;37.89;34.31;40.71;;
45478;Laerm;31227;47.986;11.868;2023-04-12T06:55:12;38.03;33.44;41.96;;
45478;Laerm;31227;47.986;11.868;2023-04-12T06:57:37;38.05;34.31;40.89;;
45478;Laerm;31227;47.986;11.868;2023-04-12T07:00:03;38.17;32.35;45.11;;
45478;Laerm;31227;47.986;11.868;2023-04-12T07:02:28;37.86;32.93;40.62;;
45478;Laerm;31227;47.986;11.868;2023-04-12T07:04:53;37.79;33.44;40.62;;
45478;Laerm;31227;47.986;11.868;2023-04-12T07:07:19;37.88;33.90;41.75;;
45478;Laerm;31227;47.986;11.868;2023-04-12T07:09:47;38.06;33.90;42.35;;
45478;Laerm;31227;47.986;11.868;2023-04-12T07:12:12;37.93;33.44;41.46;;
45478;Laerm;31227;47.986;11.868;2023-04-12T07:14:38;38.13;34.31;41.89;;
45478;Laerm;31227;47.986;11.868;2023-04-12T07:17:03;37.84;33.55;41.14;;
45478;Laerm;31227;47.986;11.868;2023-04-12T07:19:28;38.14;33.44;43.29;;
45478;Laerm;31227;47.986;11.868;2023-04-12T07:21:55;38.01;32.93;42.47;;
45478;Laerm;31227;47.986;11.868;2023-04-12T07:24:20;38.21;32.93;43.19;;
45478;Laerm;31227;47.986;11.868;2023-04-12T07:26:45;38.07;32.93;41.75;;
45478;Laerm;31227;47.986;11.868;2023-04-12T07:29:10;38.24;34.69;42.47;;
45478;Laerm;31227;47.986;11.868;2023-04-12T07:31:36;38.05;34.31;40.98;;
45478;Laerm;31227;47.986;11.868;2023-04-12T07:34:01;38.04;33.90;40.43;;
45478;Laerm;31227;47.986;11.868;2023-04-12T07:36:26;37.96;33.90;40.13;;
45478;Laerm;31227;47.986;11.868;2023-04-12T07:38:51;38.06;33.90;40.62;;
45478;Laerm;31227;47.986;11.868;2023-04-12T07:41:19;38.24;34.31;41.46;;
45478;Laerm;31227;47.986;11.868;2023-04-12T07:43:44;38.38;33.44;42.53;;
45478;Laerm;31227;47.986;11.868;2023-04-12T07:46:10;38.36;32.35;43.44;;
45478;Laerm;31227;47.986;11.868;2023-04-12T07:48:35;38.28;33.44;41.38;;
45478;Laerm;31227;47.986;11.868;2023-04-12T07:51:00;38.23;33.90;41.06;;
45478;Laerm;31227;47.986;11.868;2023-04-12T07:53:26;38.20;34.31;42.22;;
45478;Laerm;31227;47.986;11.868;2023-04-12T07:55:52;38.11;34.31;41.46;;
45478;Laerm;31227;47.986;11.868;2023-04-12T07:58:18;38.27;34.31;42.16;;
45478;Laerm;31227;47.986;11.868;2023-04-12T08:00:44;38.06;33.90;40.53;;
45478;Laerm;31227;47.986;11.868;2023-04-12T08:03:13;38.28;34.69;47.86;;
45478;Laerm;31227;47.986;11.868;2023-04-12T08:05:38;38.37;33.44;41.82;;
45478;Laerm;31227;47.986;11.868;2023-04-12T08:08:04;38.26;34.31;41.06;;
45478;Laerm;31227;47.986;11.868;2023-04-12T08:10:30;38.38;33.90;42.98;;
45478;Laerm;31227;47.986;11.868;2023-04-12T08:12:55;38.33;34.31;41.22;;
45478;Laerm;31227;47.986;11.868;2023-04-12T08:15:21;38.21;35.04;40.62;;
45478;Laerm;31227;47.986;11.868;2023-04-12T08:17:46;38.43;34.69;43.80;;
45478;Laerm;31227;47.986;11.868;2023-04-12T08:20:12;38.26;34.31;41.33;;
45478;Laerm;31227;47.986;11.868;2023-04-12T08:22:37;38.27;35.04;41.06;;
45478;Laerm;31227;47.986;11.868;2023-04-12T08:25:03;38.34;34.69;41.06;;
45478;Laerm;31227;47.986;11.868;2023-04-12T08:27:28;38.37;34.31;41.22;;
45478;Laerm;31227;47.986;11.868;2023-04-12T08:29:54;38.82;34.69;45.30;;
45478;Laerm;31227;47.986;11.868;2023-04-12T08:32:19;38.62;34.69;42.29;;
45478;Laerm;31227;47.986;11.868;2023-04-12T08:34:45;39.14;35.66;53.08;;
45478;Laerm;31227;47.986;11.868;2023-04-12T08:37:10;38.63;34.69;44.08;;
45478;Laerm;31227;47.986;11.868;2023-04-12T08:39:36;38.73;34.69;46.40;;
45478;Laerm;31227;47.986;11.868;2023-04-12T08:42:01;38.33;35.36;40.80;;
45478;Laerm;31227;47.986;11.868;2023-04-12T08:44:36;38.66;35.04;44.15;;
45478;Laerm;31227;47.986;11.868;2023-04-12T08:47:02;38.60;35.04;41.89;;
45478;Laerm;31227;47.986;11.868;2023-04-12T08:49:29;38.39;34.69;41.94;;
45478;Laerm;31227;47.986;11.868;2023-04-12T08:51:54;38.32;35.01;40.62;;
45478;Laerm;31227;47.986;11.868;2023-04-12T08:54:20;38.63;35.36;42.82;;
45478;Laerm;31227;47.986;11.868;2023-04-12T08:56:45;38.60;34.31;44.58;;
45478;Laerm;31227;47.986;11.868;2023-04-12T08:59:12;38.27;33.90;41.61;;
45478;Laerm;31227;47.986;11.868;2023-04-12T09:01:40;38.48;33.90;44.15;;
45478;Laerm;31227;47.986;11.868;2023-04-12T09:04:05;38.74;35.36;44.31;;
45478;Laerm;31227;47.986;11.868;2023-04-12T09:06:31;38.59;34.69;41.53;;
45478;Laerm;31227;47.986;11.868;2023-04-12T09:08:57;38.74;35.04;43.34;;
45478;Laerm;31227;47.986;11.868;2023-04-12T09:11:24;38.68;35.04;42.22;;
45478;Laerm;31227;47.986;11.868;2023-04-12T09:13:50;38.85;35.04;44.43;;
45478;Laerm;31227;47.986;11.868;2023-04-12T09:16:15;38.63;33.90;41.06;;
45478;Laerm;31227;47.986;11.868;2023-04-12T09:18:48;38.78;35.01;44.35;;
45478;Laerm;31227;47.986;11.868;2023-04-12T09:21:13;38.65;35.36;41.82;;
45478;Laerm;31227;47.986;11.868;2023-04-12T09:23:39;38.63;35.36;41.75;;
45478;Laerm;31227;47.986;11.868;2023-04-12T09:26:04;38.58;35.04;40.80;;
45478;Laerm;31227;47.986;11.868;2023-04-12T09:28:30;38.83;35.04;42.16;;
45478;Laerm;31227;47.986;11.868;2023-04-12T09:30:56;38.80;35.04;42.88;;
45478;Laerm;31227;47.986;11.868;2023-04-12T09:33:43;38.56;35.04;41.38;;
45478;Laerm;31227;47.986;11.868;2023-04-12T09:36:08;38.62;35.04;43.19;;
45478;Laerm;31227;47.986;11.868;2023-04-12T09:38:37;38.62;35.66;42.71;;
45478;Laerm;31227;47.986;11.868;2023-04-12T09:41:19;38.59;34.69;42.29;;
45478;Laerm;31227;47.986;11.868;2023-04-12T09:43:46;38.77;34.69;45.45;;
45478;Laerm;31227;47.986;11.868;2023-04-12T09:46:12;38.61;35.04;42.98;;
45478;Laerm;31227;47.986;11.868;2023-04-12T09:48:38;38.40;34.69;41.06;;
45478;Laerm;31227;47.986;11.868;2023-04-12T09:51:04;38.41;34.69;40.71;;
45478;Laerm;31227;47.986;11.868;2023-04-12T09:53:30;38.62;34.31;42.76;;
45478;Laerm;31227;47.986;11.868;2023-04-12T09:55:57;38.35;35.04;41.48;;
45478;Laerm;31227;47.986;11.868;2023-04-12T09:58:23;38.64;34.69;44.07;;
45478;Laerm;31227;47.986;11.868;2023-04-12T10:00:49;38.51;34.69;41.61;;
45478;Laerm;31227;47.986;11.868;2023-04-12T10:03:14;38.58;34.69;41.30;;
45478;Laerm;31227;47.986;11.868;2023-04-12T10:05:40;38.37;35.36;42.59;;
45478;Laerm;31227;47.986;11.868;2023-04-12T10:08:05;38.22;33.90;41.22;;
45478;Laerm;31227;47.986;11.868;2023-04-12T10:10:31;38.14;34.69;40.62;;
45478;Laerm;31227;47.986;11.868;2023-04-12T10:12:56;38.32;35.01;43.86;;
45478;Laerm;31227;47.986;11.868;2023-04-12T10:15:22;38.25;33.90;40.80;;
45478;Laerm;31227;47.986;11.868;2023-04-12T10:17:52;38.43;34.31;43.29;;
45478;Laerm;31227;47.986;11.868;2023-04-12T10:20:20;38.28;33.90;43.34;;
45478;Laerm;31227;47.986;11.868;2023-04-12T10:22:46;38.39;35.04;42.88;;
45478;Laerm;31227;47.986;11.868;2023-04-12T10:25:12;38.25;34.31;40.62;;
45478;Laerm;31227;47.986;11.868;2023-04-12T10:27:39;38.35;34.69;42.82;;
45478;Laerm;31227;47.986;11.868;2023-04-12T10:30:19;38.70;34.31;45.11;;
45478;Laerm;31227;47.986;11.868;2023-04-12T10:32:44;38.58;35.04;42.65;;
45478;Laerm;31227;47.986;11.868;2023-04-12T10:35:10;38.27;34.69;41.14;;
45478;Laerm;31227;47.986;11.868;2023-04-12T10:40:19;38.52;34.69;43.39;;
45478;Laerm;31227;47.986;11.868;2023-04-12T10:42:45;38.45;35.36;44.52;;
45478;Laerm;31227;47.986;11.868;2023-04-12T10:50:23;38.27;34.31;40.80;;
45478;Laerm;31227;47.986;11.868;2023-04-12T10:55:33;38.50;35.01;41.38;;
45478;Laerm;31227;47.986;11.868;2023-04-12T10:57:59;38.79;35.36;42.29;;
45478;Laerm;31227;47.986;11.868;2023-04-12T11:00:24;39.15;35.04;43.99;;
45478;Laerm;31227;47.986;11.868;2023-04-12T11:03:09;38.71;34.69;46.57;;
45478;Laerm;31227;47.986;11.868;2023-04-12T11:08:20;39.06;34.31;43.86;;
45478;Laerm;31227;47.986;11.868;2023-04-12T11:10:47;38.82;35.04;41.68;;
45478;Laerm;31227;47.986;11.868;2023-04-12T11:13:13;39.02;35.36;42.76;;
45478;Laerm;31227;47.986;11.868;2023-04-12T11:15:38;38.84;35.66;42.29;;
45478;Laerm;31227;47.986;11.868;2023-04-12T11:18:04;39.06;35.66;44.31;;
45478;Laerm;31227;47.986;11.868;2023-04-12T11:20:30;39.12;35.36;45.20;;
45478;Laerm;31227;47.986;11.868;2023-04-12T11:22:55;38.94;35.66;42.24;;
45478;Laerm;31227;47.986;11.868;2023-04-12T11:25:21;39.14;34.69;46.20;;
45478;Laerm;31227;47.986;11.868;2023-04-12T11:27:50;39.60;35.04;46.25;;
45478;Laerm;31227;47.986;11.868;2023-04-12T11:30:16;39.49;35.66;43.68;;
45478;Laerm;31227;47.986;11.868;2023-04-12T11:32:43;38.90;35.04;42.53;;
45478;Laerm;31227;47.986;11.868;2023-04-12T11:35:08;39.35;36.20;43.34;;
45478;Laerm;31227;47.986;11.868;2023-04-12T11:37:34;39.41;34.69;46.62;;
45478;Laerm;31227;47.986;11.868;2023-04-12T11:39:59;39.13;35.66;42.53;;
45478;Laerm;31227;47.986;11.868;2023-04-12T11:42:29;39.46;35.66;45.20;;
45478;Laerm;31227;47.986;11.868;2023-04-12T11:44:55;39.28;35.66;43.58;;
45478;Laerm;31227;47.986;11.868;2023-04-12T11:47:21;39.30;35.36;47.10;;
45478;Laerm;31227;47.986;11.868;2023-04-12T11:49:51;39.12;35.36;45.83;;
45478;Laerm;31227;47.986;11.868;2023-04-12T11:52:17;39.18;34.69;46.05;;
45478;Laerm;31227;47.986;11.868;2023-04-12T11:54:46;39.23;35.66;45.80;;
45478;Laerm;31227;47.986;11.868;2023-04-12T11:57:13;39.70;35.36;46.30;;
45478;Laerm;31227;47.986;11.868;2023-04-12T11:59:38;39.39;35.59;43.58;;
45478;Laerm;31227;47.986;11.868;2023-04-12T12:02:04;39.11;34.69;42.93;;
45478;Laerm;31227;47.986;11.868;2023-04-12T12:04:29;39.20;35.36;42.65;;
45478;Laerm;31227;47.986;11.868;2023-04-12T12:06:56;39.34;34.69;48.36;;
45478;Laerm;31227;47.986;11.868;2023-04-12T12:09:21;39.86;35.36;47.76;;
45478;Laerm;31227;47.986;11.868;2023-04-12T12:11:47;39.21;35.04;45.86;;
45478;Laerm;31227;47.986;11.868;2023-04-12T12:14:17;39.25;34.69;42.98;;
45478;Laerm;31227;47.986;11.868;2023-04-12T12:16:42;39.63;35.36;46.32;;
45478;Laerm;31227;47.986;11.868;2023-04-12T12:19:15;39.45;35.94;45.48;;
45478;Laerm;31227;47.986;11.868;2023-04-12T12:21:40;39.34;35.36;44.07;;
45478;Laerm;31227;47.986;11.868;2023-04-12T12:24:05;39.48;35.04;49.70;;
45478;Laerm;31227;47.986;11.868;2023-04-12T12:26:30;39.72;35.66;46.78;;
45478;Laerm;31227;47.986;11.868;2023-04-12T12:28:56;39.15;35.36;43.86;;
45478;Laerm;31227;47.986;11.868;2023-04-12T12:31:24;38.99;34.69;44.15;;
45478;Laerm;31227;47.986;11.868;2023-04-12T12:33:58;39.14;34.69;44.35;;
45478;Laerm;31227;47.986;11.868;2023-04-12T12:36:30;39.64;35.66;43.86;;
45478;Laerm;31227;47.986;11.868;2023-04-12T12:39:01;39.61;35.04;45.80;;
45478;Laerm;31227;47.986;11.868;2023-04-12T12:41:26;39.34;35.36;46.64;;
45478;Laerm;31227;47.986;11.868;2023-04-12T12:43:51;39.72;35.94;45.45;;
45478;Laerm;31227;47.986;11.868;2023-04-12T12:46:17;39.47;35.66;45.83;;
45478;Laerm;31227;47.986;11.868;2023-04-12T12:48:44;38.98;34.69;41.96;;
45478;Laerm;31227;47.986;11.868;2023-04-12T12:51:09;39.57;35.66;47.67;;
45478;Laerm;31227;47.986;11.868;2023-04-12T12:53:35;39.34;35.66;44.27;;
45478;Laerm;31227;47.986;11.868;2023-04-12T12:56:01;39.18;34.69;44.03;;
45478;Laerm;31227;47.986;11.868;2023-04-12T12:58:27;39.42;35.04;44.94;;
45478;Laerm;31227;47.986;11.868;2023-04-12T13:00:52;39.22;35.94;43.29;;
45478;Laerm;31227;47.986;11.868;2023-04-12T13:03:18;39.17;35.36;46.18;;
45478;Laerm;31227;47.986;11.868;2023-04-12T13:05:43;39.15;35.36;46.52;;
45478;Laerm;31227;47.986;11.868;2023-04-12T13:08:08;40.19;35.66;57.21;;
45478;Laerm;31227;47.986;11.868;2023-04-12T13:10:33;39.23;35.36;42.09;;
45478;Laerm;31227;47.986;11.868;2023-04-12T13:12:59;39.64;35.66;46.76;;
45478;Laerm;31227;47.986;11.868;2023-04-12T13:15:25;39.00;35.66;42.22;;
45478;Laerm;31227;47.986;11.868;2023-04-12T13:17:51;39.27;34.69;45.51;;
45478;Laerm;31227;47.986;11.868;2023-04-12T13:20:16;39.03;35.04;43.04;;
45478;Laerm;31227;47.986;11.868;2023-04-12T13:22:42;39.16;35.36;43.09;;
45478;Laerm;31227;47.986;11.868;2023-04-12T13:25:07;39.14;35.36;43.63;;
45478;Laerm;31227;47.986;11.868;2023-04-12T13:27:33;39.13;35.36;43.14;;
45478;Laerm;31227;47.986;11.868;2023-04-12T13:29:58;39.71;35.66;46.45;;
45478;Laerm;31227;47.986;11.868;2023-04-12T13:32:23;39.29;35.66;45.54;;
45478;Laerm;31227;47.986;11.868;2023-04-12T13:34:49;39.29;35.36;43.44;;
45478;Laerm;31227;47.986;11.868;2023-04-12T13:37:14;39.28;35.36;45.72;;
45478;Laerm;31227;47.986;11.868;2023-04-12T13:39:39;39.43;35.94;43.63;;
45478;Laerm;31227;47.986;11.868;2023-04-12T13:42:05;39.28;35.66;42.88;;
45478;Laerm;31227;47.986;11.868;2023-04-12T13:44:31;39.68;35.66;46.45;;
45478;Laerm;31227;47.986;11.868;2023-04-12T13:46:56;39.25;35.66;43.49;;
45478;Laerm;31227;47.986;11.868;2023-04-12T13:49:21;39.20;34.69;42.98;;
45478;Laerm;31227;47.986;11.868;2023-04-12T13:51:46;39.47;35.04;49.58;;
45478;Laerm;31227;47.986;11.868;2023-04-12T13:54:12;39.60;34.69;46.48;;
45478;Laerm;31227;47.986;11.868;2023-04-12T13:56:39;39.19;35.04;44.23;;
45478;Laerm;31227;47.986;11.868;2023-04-12T13:59:04;39.47;35.36;44.35;;
45478;Laerm;31227;47.986;11.868;2023-04-12T14:01:30;39.80;35.86;45.63;;
45478;Laerm;31227;47.986;11.868;2023-04-12T14:03:55;39.39;35.59;45.51;;
45478;Laerm;31227;47.986;11.868;2023-04-12T14:06:21;39.25;35.36;43.49;;
45478;Laerm;31227;47.986;11.868;2023-04-12T14:08:46;39.45;35.04;53.33;;
45478;Laerm;31227;47.986;11.868;2023-04-12T14:11:12;39.19;35.66;42.47;;